Terminal Aerodrome Forecast
Issued by NWS Billings, MT

Home | Current Version | Previous Version | Text Only | Print | Product List | Glossary Off
Versions: 1 2 3 4 5 6 7 8 9 10 11 12 13 14 15 16 17 18 19 20 21 22 23 24

000
FTUS45 KBYZ 192320
TAFMLS
TAF
KMLS 192320Z 2000/2024 30015KT P6SM BKN100
     FM200200 28009KT P6SM FEW100
     FM201600 32015G21KT P6SM FEW100=

USA.gov is the U.S. government's official web portal to all federal, state and local government web resources and services.